Franco da Rocha, Brazil
Current Conditions -  °F | °C
As of 6:00 AM on Monday 20 Oct 2014 (Local Time) from SBMT Reporting Station
Clear Clear  
Wind Chill: 66°   Ceiling: Unl
Heat Index: 66°   Visibility: 6mi
Dew Point: 61°   Wind: 3mph
Humidity: 83%   Direction: 130°SE
Pressure: 29.97"   Gusts: NA
Location:  23.33°S, 46.72°W
Report Text: SBMT 200900Z 13003KT CAVOK 19/16 Q1015
Loading
Personal Weather Stations






























Interactive Weather Map
Tropical Storm Tracking
New forecast layout! Learn more

10-Day Weather Forecast

Advertisements
Track Severe Weather on mobile